createdAt,value
2019-02-26T00:00:16.936Z,60.96
2019-02-26T00:02:46.535Z,60.38
2019-02-26T00:05:17.346Z,60.39
2019-02-26T00:07:41.707Z,60.12
2019-02-26T00:10:09.259Z,60.05
2019-02-26T00:12:35.859Z,59.89
2019-02-26T00:15:06.557Z,59.77
2019-02-26T00:17:36.222Z,59.78
2019-02-26T00:20:01.343Z,60.14
2019-02-26T00:22:29.572Z,60.18
2019-02-26T00:24:56.179Z,60.44
2019-02-26T00:27:23.525Z,60.46
2019-02-26T00:29:53.012Z,60.04
2019-02-26T00:32:19.573Z,60.21
2019-02-26T00:34:46.015Z,59.87
2019-02-26T00:37:12.470Z,60.69
2019-02-26T00:39:38.930Z,61.21
2019-02-26T00:42:05.445Z,61.04
2019-02-26T00:44:32.782Z,61.91
2019-02-26T00:47:04.841Z,62.03
2019-02-26T00:49:31.050Z,62.66
2019-02-26T00:51:57.386Z,62.46
2019-02-26T00:54:24.507Z,62.34
2019-02-26T00:56:52.156Z,62.81
2019-02-26T00:59:18.599Z,63.03
2019-02-26T01:01:46.371Z,62.76
2019-02-26T01:04:13.701Z,62.59
2019-02-26T01:06:40.089Z,62.20
2019-02-26T01:09:10.701Z,63.27
2019-02-26T01:11:36.154Z,63.07
2019-02-26T01:14:02.607Z,63.38
2019-02-26T01:16:29.057Z,64.66
2019-02-26T01:18:55.931Z,64.89
2019-02-26T01:21:26.231Z,64.51
2019-02-26T01:23:51.371Z,64.32
2019-02-26T01:26:17.674Z,64.15
2019-02-26T01:28:46.206Z,64.29
2019-02-26T01:31:12.305Z,63.36
2019-02-26T01:33:38.819Z,62.22
2019-02-26T01:36:05.274Z,61.82
2019-02-26T01:38:31.586Z,61.68
2019-02-26T01:40:58.231Z,61.62
2019-02-26T01:43:24.518Z,63.45
2019-02-26T01:45:53.086Z,63.88
2019-02-26T01:48:19.508Z,63.63
2019-02-26T01:50:47.849Z,63.28
2019-02-26T01:53:15.294Z,62.72
2019-02-26T01:55:46.035Z,62.52
2019-02-26T01:58:16.572Z,62.32
2019-02-26T02:00:42.453Z,62.15
2019-02-26T02:03:08.766Z,62.06
2019-02-26T02:05:35.240Z,61.77
2019-02-26T02:08:01.845Z,61.68
2019-02-26T02:10:28.253Z,61.40
2019-02-26T02:12:57.320Z,61.38
2019-02-26T02:15:23.914Z,61.16
2019-02-26T02:17:50.562Z,60.97
2019-02-26T02:20:21.291Z,60.87
2019-02-26T02:22:45.326Z,60.74
2019-02-26T02:25:11.715Z,60.68
2019-02-26T02:27:38.426Z,60.72
2019-02-26T02:30:22.529Z,60.54
2019-02-26T02:32:50.420Z,60.45
2019-02-26T02:35:15.403Z,60.67
2019-02-26T02:37:41.322Z,60.72
2019-02-26T02:40:10.627Z,60.73
2019-02-26T02:42:37.707Z,60.73
2019-02-26T02:45:13.545Z,60.70
2019-02-26T02:47:39.117Z,60.50
2019-02-26T02:50:15.107Z,60.38
2019-02-26T02:52:42.313Z,60.40
2019-02-26T02:55:12.920Z,60.32
2019-02-26T02:57:38.107Z,60.30
2019-02-26T03:00:15.345Z,60.24
2019-02-26T03:02:43.246Z,60.26
2019-02-26T03:05:11.848Z,60.26
2019-02-26T03:07:38.437Z,60.31
2019-02-26T03:10:12.066Z,60.36
2019-02-26T03:12:38.512Z,60.37
2019-02-26T03:15:15.271Z,60.35
2019-02-26T03:17:41.898Z,60.38
2019-02-26T03:20:11.283Z,60.38
2019-02-26T03:22:39.706Z,60.34
2019-02-26T03:25:10.439Z,60.37
2019-02-26T03:27:39.909Z,60.57
2019-02-26T03:30:26.427Z,60.61
2019-02-26T03:32:55.751Z,60.69
2019-02-26T03:35:16.697Z,60.61
2019-02-26T03:37:44.531Z,60.62
2019-02-26T03:40:13.102Z,60.62
2019-02-26T03:42:41.628Z,60.71
2019-02-26T03:45:12.359Z,60.71
2019-02-26T03:47:40.628Z,60.93
2019-02-26T03:50:14.601Z,60.74
2019-02-26T03:52:42.790Z,60.88
2019-02-26T03:55:11.485Z,60.83
2019-02-26T03:57:41.107Z,60.93
2019-02-26T04:00:14.932Z,60.91
2019-02-26T04:02:45.530Z,61.14
2019-02-26T04:05:12.751Z,61.02
2019-02-26T04:07:39.282Z,61.10
2019-02-26T04:10:07.988Z,60.98
2019-02-26T04:12:39.238Z,61.14
2019-02-26T04:15:12.707Z,61.10
2019-02-26T04:17:40.175Z,60.87
2019-02-26T04:20:10.068Z,61.08
2019-02-26T04:22:39.195Z,61.09
2019-02-26T04:25:35.525Z,61.20
2019-02-26T04:28:18.860Z,61.26
2019-02-26T04:31:00.033Z,61.41
2019-02-26T04:34:07.919Z,61.45
2019-02-26T04:37:01.554Z,61.42
2019-02-26T04:40:02.389Z,61.36
2019-02-26T04:43:04.555Z,61.54
2019-02-26T04:45:59.384Z,61.73
2019-02-26T04:48:34.341Z,62.10
2019-02-26T04:51:01.344Z,61.96
2019-02-26T04:53:28.796Z,61.92
2019-02-26T04:55:57.478Z,61.75
2019-02-26T04:58:24.152Z,61.81
2019-02-26T05:00:50.814Z,62.12
2019-02-26T05:03:19.801Z,62.65
2019-02-26T05:05:45.309Z,63.03
2019-02-26T05:08:12.840Z,63.34
2019-02-26T05:10:40.087Z,63.30
2019-02-26T05:13:09.405Z,63.16
2019-02-26T05:15:34.725Z,63.30
2019-02-26T05:18:01.121Z,63.16
2019-02-26T05:20:27.802Z,63.06
2019-02-26T05:22:54.771Z,63.16
2019-02-26T05:25:22.549Z,63.22
2019-02-26T05:27:50.887Z,63.52
2019-02-26T05:30:19.509Z,63.68
2019-02-26T05:32:45.431Z,64.04
2019-02-26T05:35:13.739Z,64.10
2019-02-26T05:37:40.975Z,64.53
2019-02-26T05:40:12.179Z,64.42
2019-02-26T05:42:35.835Z,64.28
2019-02-26T05:45:08.416Z,64.56
2019-02-26T05:47:32.526Z,64.40
2019-02-26T05:49:59.560Z,64.87
2019-02-26T05:52:29.941Z,64.67
2019-02-26T05:54:55.645Z,64.96
2019-02-26T05:57:27.704Z,65.19
2019-02-26T05:59:50.238Z,65.05
2019-02-26T06:02:21.129Z,65.10
2019-02-26T06:04:46.732Z,65.11
2019-02-26T06:07:13.438Z,65.13
2019-02-26T06:09:39.828Z,65.08
2019-02-26T06:12:06.287Z,65.35
2019-02-26T06:14:36.127Z,65.16
2019-02-26T06:17:02.791Z,65.27
2019-02-26T06:19:44.777Z,65.59
2019-02-26T06:22:14.474Z,65.92
2019-02-26T06:24:39.553Z,65.95
2019-02-26T06:27:08.604Z,65.94
2019-02-26T06:29:37.376Z,66.02
2019-02-26T06:32:16.829Z,66.11
2019-02-26T06:34:43.667Z,66.18
2019-02-26T06:37:19.246Z,66.15
2019-02-26T06:39:45.602Z,66.25
2019-02-26T06:42:14.420Z,66.19
2019-02-26T06:44:41.381Z,66.26
2019-02-26T06:47:09.185Z,66.39
2019-02-26T06:49:35.788Z,66.56
2019-02-26T06:52:02.606Z,66.67
2019-02-26T06:54:31.731Z,66.46
2019-02-26T06:56:57.452Z,66.54
2019-02-26T06:59:34.946Z,66.53
2019-02-26T07:02:00.947Z,66.87
2019-02-26T07:04:30.138Z,67.02
2019-02-26T07:06:57.508Z,67.15
2019-02-26T07:09:25.208Z,67.11
2019-02-26T07:11:51.627Z,67.35
2019-02-26T07:14:17.965Z,67.32
2019-02-26T07:16:44.270Z,67.41
2019-02-26T07:19:12.390Z,67.54
2019-02-26T07:21:40.598Z,67.51
2019-02-26T07:24:07.831Z,67.75
2019-02-26T07:26:36.170Z,67.50
2019-02-26T07:29:03.894Z,67.62
2019-02-26T07:31:32.755Z,67.48
2019-02-26T07:34:01.362Z,67.75
2019-02-26T07:36:28.240Z,67.74
2019-02-26T07:38:56.470Z,68.29
2019-02-26T07:41:23.620Z,68.72
2019-02-26T07:43:51.929Z,68.72
2019-02-26T07:46:21.499Z,69.34
2019-02-26T07:48:48.867Z,69.51
2019-02-26T07:51:16.883Z,69.18
2019-02-26T07:53:47.949Z,69.17
2019-02-26T07:56:11.755Z,69.21
2019-02-26T07:58:38.945Z,69.67
2019-02-26T08:01:06.552Z,69.84
2019-02-26T08:03:32.991Z,70.42
2019-02-26T08:06:04.032Z,70.78
2019-02-26T08:08:28.198Z,70.94
2019-02-26T08:10:54.595Z,71.14
2019-02-26T08:13:20.881Z,71.29
2019-02-26T08:15:47.298Z,71.81
2019-02-26T08:18:13.889Z,72.18
2019-02-26T08:20:40.398Z,72.51
2019-02-26T08:23:06.808Z,72.88
2019-02-26T08:25:33.264Z,72.88
2019-02-26T08:28:01.285Z,73.14
2019-02-26T08:30:27.934Z,73.37
2019-02-26T08:32:56.084Z,73.38
2019-02-26T08:35:22.671Z,73.58
2019-02-26T08:37:49.474Z,73.59
2019-02-26T08:40:16.009Z,73.78
2019-02-26T08:42:43.395Z,74.08
2019-02-26T08:45:15.140Z,74.34
2019-02-26T08:47:41.585Z,74.56
2019-02-26T08:50:12.442Z,74.81
2019-02-26T08:52:39.080Z,74.93
2019-02-26T08:55:10.670Z,75.05
2019-02-26T08:57:37.307Z,75.13
2019-02-26T09:00:11.800Z,75.24
2019-02-26T09:02:38.285Z,75.43
2019-02-26T09:05:09.874Z,75.47
2019-02-26T09:07:37.864Z,75.55
2019-02-26T09:10:17.929Z,75.62
2019-02-26T09:12:46.919Z,75.76
2019-02-26T09:15:16.945Z,75.79
2019-02-26T09:17:43.304Z,75.79
2019-02-26T09:20:15.145Z,75.88
2019-02-26T09:22:45.765Z,76.14
2019-02-26T09:25:11.231Z,75.90
2019-02-26T09:27:42.845Z,75.94
2019-02-26T09:30:14.031Z,76.05
2019-02-26T09:32:44.130Z,76.14
2019-02-26T09:35:13.223Z,76.19
2019-02-26T09:37:39.621Z,76.05
2019-02-26T09:40:10.967Z,76.11
2019-02-26T09:42:37.466Z,76.08
2019-02-26T09:45:08.991Z,75.67
2019-02-26T09:47:35.320Z,75.72
2019-02-26T09:50:01.702Z,75.89
2019-02-26T09:52:30.221Z,75.83
2019-02-26T09:54:56.653Z,75.83
2019-02-26T09:57:24.222Z,75.89
2019-02-26T09:59:52.298Z,75.85
2019-02-26T10:02:21.953Z,75.53
2019-02-26T10:04:49.612Z,75.44
2019-02-26T10:07:16.938Z,75.13
2019-02-26T10:09:46.591Z,75.17
2019-02-26T10:12:13.475Z,75.16
2019-02-26T10:14:39.891Z,74.98
2019-02-26T10:17:06.658Z,74.74
2019-02-26T10:19:35.518Z,74.68
2019-02-26T10:22:05.597Z,74.84
2019-02-26T10:24:32.170Z,74.50
2019-02-26T10:27:00.755Z,74.58
2019-02-26T10:29:26.524Z,74.40
2019-02-26T10:31:56.095Z,74.46
2019-02-26T10:34:25.025Z,74.49
2019-02-26T10:36:51.890Z,74.25
2019-02-26T10:39:20.485Z,74.19
2019-02-26T10:41:46.740Z,74.19
2019-02-26T10:44:14.729Z,74.29
2019-02-26T10:46:42.761Z,74.33
2019-02-26T10:49:09.823Z,74.21
2019-02-26T10:51:36.331Z,74.05
2019-02-26T10:54:03.540Z,73.65
2019-02-26T10:56:36.281Z,73.82
2019-02-26T10:59:03.475Z,73.53
2019-02-26T11:01:30.482Z,73.21
2019-02-26T11:03:56.324Z,73.19
2019-02-26T11:06:22.834Z,73.13
2019-02-26T11:08:51.208Z,73.12
2019-02-26T11:11:19.123Z,72.98
2019-02-26T11:13:50.905Z,73.05
2019-02-26T11:16:17.055Z,72.85
2019-02-26T11:18:42.727Z,72.57
2019-02-26T11:21:10.399Z,72.49
2019-02-26T11:23:38.645Z,72.64
2019-02-26T11:26:06.700Z,72.37
2019-02-26T11:28:37.886Z,72.24
2019-02-26T11:31:01.652Z,72.40
2019-02-26T11:33:28.185Z,72.69
2019-02-26T11:35:54.570Z,72.55
2019-02-26T11:38:22.040Z,72.21
2019-02-26T11:40:48.811Z,72.30
2019-02-26T11:43:19.367Z,72.05
2019-02-26T11:45:44.535Z,72.08
2019-02-26T11:48:11.010Z,72.05
2019-02-26T11:50:37.327Z,71.76
2019-02-26T11:53:03.618Z,71.30
2019-02-26T11:55:32.463Z,71.61
2019-02-26T11:58:00.130Z,71.56
2019-02-26T12:00:42.806Z,71.84
2019-02-26T12:03:09.739Z,71.65
2019-02-26T12:05:38.877Z,71.32
2019-02-26T12:08:04.750Z,71.04
2019-02-26T12:10:32.484Z,71.23
2019-02-26T12:13:02.168Z,71.36
2019-02-26T12:15:30.125Z,71.36
2019-02-26T12:17:58.641Z,71.28
2019-02-26T12:20:25.022Z,70.73
2019-02-26T12:22:52.359Z,70.87
2019-02-26T12:25:19.798Z,70.56
2019-02-26T12:27:48.207Z,69.96
2019-02-26T12:30:22.890Z,69.68
2019-02-26T12:32:49.916Z,69.37
2019-02-26T12:35:18.028Z,69.34
2019-02-26T12:37:44.618Z,69.42
2019-02-26T12:40:19.206Z,69.39
2019-02-26T12:42:44.807Z,69.53
2019-02-26T12:45:20.379Z,68.77
2019-02-26T12:47:49.385Z,69.24
2019-02-26T12:50:20.093Z,69.32
2019-02-26T12:52:47.496Z,68.86
2019-02-26T12:55:14.843Z,67.81
2019-02-26T12:57:43.302Z,67.17
2019-02-26T13:00:23.018Z,67.31
2019-02-26T13:02:49.454Z,67.19
2019-02-26T13:05:22.916Z,67.22
2019-02-26T13:07:48.164Z,67.80
2019-02-26T13:10:23.218Z,67.85
2019-02-26T13:12:54.018Z,67.55
2019-02-26T13:15:21.762Z,66.67
2019-02-26T13:17:53.235Z,65.96
2019-02-26T13:20:27.390Z,66.10
2019-02-26T13:23:00.516Z,66.54
2019-02-26T13:25:26.362Z,66.22
2019-02-26T13:27:50.475Z,66.04
2019-02-26T13:30:24.463Z,65.59
2019-02-26T13:32:56.268Z,65.95
2019-02-26T13:35:20.252Z,66.19
2019-02-26T13:37:49.987Z,66.20
2019-02-26T13:40:22.931Z,65.77
2019-02-26T13:42:56.588Z,65.79
2019-02-26T13:45:19.991Z,66.33
2019-02-26T13:47:46.623Z,66.33
2019-02-26T13:50:21.009Z,66.57
2019-02-26T13:52:47.348Z,67.10
2019-02-26T13:55:13.738Z,66.48
2019-02-26T13:57:40.075Z,66.63
2019-02-26T14:00:12.482Z,66.11
2019-02-26T14:02:38.914Z,65.73
2019-02-26T14:05:09.610Z,65.28
2019-02-26T14:07:35.911Z,64.98
2019-02-26T14:10:09.452Z,65.12
2019-02-26T14:12:36.335Z,65.27
2019-02-26T14:15:06.832Z,65.72
2019-02-26T14:17:33.901Z,65.69
2019-02-26T14:20:00.335Z,65.65
2019-02-26T14:22:26.731Z,65.27
2019-02-26T14:24:53.887Z,65.36
2019-02-26T14:27:20.738Z,65.83
2019-02-26T14:29:47.211Z,65.86
2019-02-26T14:32:13.554Z,65.75
2019-02-26T14:34:40.342Z,65.50
2019-02-26T14:37:06.679Z,65.69
2019-02-26T14:39:33.059Z,65.71
2019-02-26T14:41:59.512Z,65.41
2019-02-26T14:44:25.803Z,65.32
2019-02-26T14:46:52.475Z,65.21
2019-02-26T14:49:19.159Z,64.92
2019-02-26T14:51:45.539Z,64.58
2019-02-26T14:54:11.825Z,64.53
2019-02-26T14:56:38.229Z,64.62
2019-02-26T14:59:04.692Z,64.42
2019-02-26T15:01:31.100Z,64.53
2019-02-26T15:03:57.521Z,64.23
2019-02-26T15:06:23.851Z,64.11
2019-02-26T15:08:50.401Z,64.24
2019-02-26T15:11:16.828Z,63.93
2019-02-26T15:13:43.692Z,64.04
2019-02-26T15:16:10.024Z,63.75
2019-02-26T15:18:36.799Z,63.65
2019-02-26T15:21:03.387Z,63.62
2019-02-26T15:23:29.860Z,63.48
2019-02-26T15:25:56.271Z,63.13
2019-02-26T15:28:22.802Z,63.09
2019-02-26T15:30:49.337Z,63.10
2019-02-26T15:33:15.817Z,63.17
2019-02-26T15:35:42.413Z,63.18
2019-02-26T15:38:08.859Z,63.24
2019-02-26T15:40:35.174Z,63.31
2019-02-26T15:43:01.607Z,63.70
2019-02-26T15:45:29.677Z,63.91
2019-02-26T15:47:56.285Z,63.82
2019-02-26T15:50:22.632Z,63.43
2019-02-26T15:52:52.625Z,63.77
2019-02-26T15:55:25.932Z,63.87
2019-02-26T15:57:52.240Z,63.83
2019-02-26T16:00:24.804Z,63.93
2019-02-26T16:02:52.399Z,63.91
2019-02-26T16:05:22.355Z,64.10
2019-02-26T16:07:48.632Z,64.25
2019-02-26T16:10:15.139Z,64.41
2019-02-26T16:12:41.736Z,64.56
2019-02-26T16:15:14.853Z,64.65
2019-02-26T16:17:41.256Z,64.77
2019-02-26T16:20:19.618Z,64.97
2019-02-26T16:22:45.923Z,65.10
2019-02-26T16:25:12.251Z,65.24
2019-02-26T16:27:38.559Z,65.25
2019-02-26T16:30:20.562Z,65.22
2019-02-26T16:32:48.830Z,65.17
2019-02-26T16:35:15.377Z,65.16
2019-02-26T16:37:42.184Z,65.22
2019-02-26T16:40:12.636Z,65.23
2019-02-26T16:42:38.959Z,65.24
2019-02-26T16:45:10.556Z,65.21
2019-02-26T16:47:39.254Z,65.01
2019-02-26T16:50:13.390Z,65.05
2019-02-26T16:52:40.063Z,64.84
2019-02-26T16:55:13.451Z,65.00
2019-02-26T16:57:38.314Z,64.69
2019-02-26T17:00:16.438Z,64.43
2019-02-26T17:02:43.200Z,64.41
2019-02-26T17:05:09.622Z,64.40
2019-02-26T17:07:37.934Z,64.25
2019-02-26T17:10:12.507Z,64.28
2019-02-26T17:12:38.794Z,64.24
2019-02-26T17:15:16.028Z,64.16
2019-02-26T17:17:42.319Z,64.24
2019-02-26T17:20:08.922Z,64.38
2019-02-26T17:22:35.867Z,64.31
2019-02-26T17:25:04.575Z,64.33
2019-02-26T17:27:31.031Z,64.47
2019-02-26T17:29:57.320Z,64.59
2019-02-26T17:32:23.722Z,64.66
2019-02-26T17:34:50.139Z,64.79
2019-02-26T17:37:16.816Z,64.90
2019-02-26T17:39:43.212Z,64.94
2019-02-26T17:42:09.523Z,65.04
2019-02-26T17:44:35.840Z,65.08
2019-02-26T17:47:02.148Z,65.27
2019-02-26T17:49:28.550Z,65.31
2019-02-26T17:51:54.899Z,65.52
2019-02-26T17:54:21.538Z,65.78
2019-02-26T17:56:48.066Z,65.84
2019-02-26T17:59:17.355Z,65.83
2019-02-26T18:01:44.011Z,65.89
2019-02-26T18:04:10.693Z,66.02
2019-02-26T18:06:37.044Z,66.11
2019-02-26T18:09:04.262Z,66.17
2019-02-26T18:11:30.662Z,66.45
2019-02-26T18:14:00.227Z,66.63
2019-02-26T18:16:27.173Z,67.01
2019-02-26T18:18:53.475Z,67.36
2019-02-26T18:21:19.914Z,67.27
2019-02-26T18:23:46.223Z,67.25
2019-02-26T18:26:12.605Z,67.20
2019-02-26T18:28:39.304Z,67.43
2019-02-26T18:31:06.026Z,67.54
2019-02-26T18:33:35.588Z,67.60
2019-02-26T18:36:00.544Z,67.55
2019-02-26T18:38:26.866Z,67.51
2019-02-26T18:40:53.392Z,67.51
2019-02-26T18:43:20.763Z,67.51
2019-02-26T18:45:47.311Z,67.59
2019-02-26T18:48:15.099Z,67.67
2019-02-26T18:50:42.059Z,67.73
2019-02-26T18:53:08.490Z,67.94
2019-02-26T18:55:35.065Z,67.90
2019-02-26T18:58:01.497Z,67.89
2019-02-26T19:00:32.130Z,68.06
2019-02-26T19:02:58.460Z,68.15
2019-02-26T19:05:25.195Z,68.21
2019-02-26T19:07:51.583Z,68.34
2019-02-26T19:10:20.896Z,68.48
2019-02-26T19:12:47.148Z,68.68
2019-02-26T19:15:25.821Z,68.68
2019-02-26T19:17:53.415Z,68.78
2019-02-26T19:20:24.515Z,69.01
2019-02-26T19:22:52.013Z,68.92
2019-02-26T19:25:19.802Z,68.90
2019-02-26T19:27:46.295Z,69.04
2019-02-26T19:30:20.827Z,69.51
2019-02-26T19:32:48.321Z,69.49
2019-02-26T19:35:14.794Z,69.46
2019-02-26T19:37:46.909Z,69.46
2019-02-26T19:40:22.566Z,69.33
2019-02-26T19:42:52.677Z,69.77
2019-02-26T19:45:17.594Z,69.59
2019-02-26T19:47:44.022Z,69.28
2019-02-26T19:50:14.823Z,69.64
2019-02-26T19:52:41.335Z,69.68
2019-02-26T19:55:16.342Z,69.48
2019-02-26T19:57:42.943Z,69.40
2019-02-26T20:00:12.986Z,69.57
2019-02-26T20:02:39.374Z,69.77
2019-02-26T20:05:12.222Z,69.82
2019-02-26T20:07:38.697Z,70.00
2019-02-26T20:10:15.755Z,69.95
2019-02-26T20:12:42.137Z,70.28
2019-02-26T20:15:13.122Z,70.23
2019-02-26T20:17:39.339Z,70.53
2019-02-26T20:20:13.834Z,70.77
2019-02-26T20:22:40.158Z,70.86
2019-02-26T20:25:10.784Z,71.27
2019-02-26T20:27:37.080Z,71.06
2019-02-26T20:30:12.406Z,70.96
2019-02-26T20:32:39.606Z,71.17
2019-02-26T20:35:11.545Z,71.13
2019-02-26T20:37:37.566Z,71.32
2019-02-26T20:40:19.284Z,71.25
2019-02-26T20:42:45.713Z,71.19
2019-02-26T20:45:18.184Z,71.28
2019-02-26T20:47:46.200Z,71.31
2019-02-26T20:50:12.375Z,71.38
2019-02-26T20:52:38.787Z,71.47
2019-02-26T20:55:10.764Z,71.48
2019-02-26T20:57:37.699Z,71.45
2019-02-26T21:00:12.578Z,71.54
2019-02-26T21:02:38.902Z,71.49
2019-02-26T21:05:07.336Z,71.58
2019-02-26T21:07:33.723Z,71.67
2019-02-26T21:10:03.812Z,71.72
2019-02-26T21:12:29.409Z,71.71
2019-02-26T21:14:55.863Z,71.99
2019-02-26T21:17:25.635Z,72.03
2019-02-26T21:19:51.166Z,72.09
2019-02-26T21:22:19.778Z,72.11
2019-02-26T21:24:47.464Z,72.12
2019-02-26T21:27:13.943Z,72.12
2019-02-26T21:29:41.614Z,71.82
2019-02-26T21:32:08.380Z,72.09
2019-02-26T21:34:34.962Z,72.21
2019-02-26T21:37:01.292Z,72.03
2019-02-26T21:39:27.603Z,72.28
2019-02-26T21:41:56.356Z,72.18
2019-02-26T21:44:22.841Z,72.48
2019-02-26T21:46:49.162Z,72.41
2019-02-26T21:49:15.552Z,72.60
2019-02-26T21:51:42.217Z,72.45
2019-02-26T21:54:08.825Z,72.57
2019-02-26T21:56:35.228Z,72.86
2019-02-26T21:59:01.655Z,72.83
2019-02-26T22:01:27.964Z,72.88
2019-02-26T22:03:55.797Z,72.77
2019-02-26T22:06:22.576Z,72.87
2019-02-26T22:08:49.167Z,73.02
2019-02-26T22:11:15.824Z,73.10
2019-02-26T22:13:43.935Z,73.14
2019-02-26T22:16:10.224Z,73.16
2019-02-26T22:18:36.883Z,73.15
2019-02-26T22:21:03.335Z,73.10
2019-02-26T22:23:34.017Z,73.13
2019-02-26T22:25:58.313Z,72.95
2019-02-26T22:28:25.851Z,73.13
2019-02-26T22:30:55.718Z,73.06
2019-02-26T22:33:21.051Z,73.08
2019-02-26T22:35:47.343Z,72.95
2019-02-26T22:38:15.463Z,72.95
2019-02-26T22:40:42.374Z,72.95
2019-02-26T22:43:08.774Z,72.98
2019-02-26T22:45:35.363Z,73.13
2019-02-26T22:48:01.842Z,73.06
2019-02-26T22:50:28.237Z,73.06
2019-02-26T22:52:54.638Z,73.08
2019-02-26T22:55:21.168Z,73.09
2019-02-26T22:57:47.470Z,73.29
2019-02-26T23:00:30.189Z,73.20
2019-02-26T23:02:56.703Z,73.18
2019-02-26T23:05:25.459Z,73.15
2019-02-26T23:07:51.710Z,73.14
2019-02-26T23:10:18.003Z,73.32
2019-02-26T23:12:44.466Z,73.23
2019-02-26T23:15:11.974Z,73.13
2019-02-26T23:17:39.087Z,73.10
2019-02-26T23:20:07.606Z,73.12
2019-02-26T23:22:33.960Z,72.96
2019-02-26T23:25:01.015Z,72.94
2019-02-26T23:27:28.156Z,73.00
2019-02-26T23:29:54.480Z,72.98
2019-02-26T23:32:20.830Z,73.06
2019-02-26T23:35:03.778Z,73.12
2019-02-26T23:37:34.304Z,73.05
2019-02-26T23:39:58.422Z,73.05
2019-02-26T23:42:25.083Z,73.00
2019-02-26T23:44:51.599Z,73.00
2019-02-26T23:47:17.885Z,72.99
2019-02-26T23:49:44.914Z,73.00
2019-02-26T23:52:12.530Z,73.09
2019-02-26T23:54:39.941Z,73.04
2019-02-26T23:57:06.896Z,73.05
2019-02-26T23:59:34.798Z,72.92
